Time;durP1;ratioP1;P1;durP2;ratioP2;P2;SDS_P1;SDS_P2;PMS_P1;PMS_P2;Temp;Humidity;BMP_temperature;BMP_pressure;BME280_temperature;BME280_humidity;BME280_pressure;Samples;Min_cycle;Max_cycle;Signal;HPM_P1;HPM_P2
2023/03/27 00:00:45;;;;;;;0.80;0.80;;;;;;;-3.21;86.13;99728.31;5043861;28;20037;-71
2023/03/27 00:03:12;;;;;;;0.60;0.60;;;;;;;-3.28;86.18;99738.25;5043624;28;20036;-71
2023/03/27 00:05:39;;;;;;;0.60;0.60;;;;;;;-3.28;86.05;99738.25;5044887;28;20034;-71
2023/03/27 00:08:08;;;;;;;0.68;0.68;;;;;;;-3.33;86.19;99737.22;5044861;28;20025;-71
2023/03/27 00:10:34;;;;;;;0.60;0.60;;;;;;;-3.36;86.01;99739.66;5043703;28;20024;-71
2023/03/27 00:13:02;;;;;;;0.70;0.70;;;;;;;-3.40;86.30;99732.69;5043223;28;20506;-72
2023/03/27 00:15:32;;;;;;;0.65;0.65;;;;;;;-3.43;86.28;99725.84;5043747;28;20358;-72
2023/03/27 00:18:01;;;;;;;0.60;0.60;;;;;;;-3.39;86.19;99737.00;5044709;28;20060;-72
2023/03/27 00:20:26;;;;;;;0.50;0.50;;;;;;;-3.41;86.24;99728.44;5044785;28;20021;-71
2023/03/27 00:22:59;;;;;;;0.60;0.60;;;;;;;-3.37;86.39;99732.84;5044994;28;20555;-72
2023/03/27 00:25:27;;;;;;;0.60;0.60;;;;;;;-3.39;86.28;99739.53;5044839;28;20022;-70
2023/03/27 00:27:55;;;;;;;0.60;0.60;;;;;;;-3.46;86.11;99727.41;5043095;28;20025;-71
2023/03/27 00:30:22;;;;;;;0.60;0.60;;;;;;;-3.57;85.88;99717.72;5044954;28;20037;-72
2023/03/27 00:32:47;;;;;;;0.60;0.60;;;;;;;-3.43;86.09;99738.53;5044749;28;20025;-71
2023/03/27 00:35:14;;;;;;;0.60;0.60;;;;;;;-3.43;86.23;99733.47;5044608;28;20367;-71
2023/03/27 00:37:40;;;;;;;0.60;0.60;;;;;;;-3.48;86.22;99724.81;5044654;28;20022;-70
2023/03/27 00:40:12;;;;;;;0.60;0.60;;;;;;;-3.44;86.24;99743.56;5044752;28;20052;-71
2023/03/27 00:42:37;;;;;;;0.60;0.60;;;;;;;-3.51;86.28;99734.84;5044799;28;20028;-71
2023/03/27 00:45:03;;;;;;;0.60;0.60;;;;;;;-3.52;86.10;99734.00;5043391;28;20121;-71
2023/03/27 00:47:32;;;;;;;0.60;0.60;;;;;;;-3.53;85.95;99739.00;5044596;28;20025;-71
2023/03/27 00:50:02;;;;;;;0.70;0.70;;;;;;;-3.58;86.07;99732.91;5044699;28;20026;-72
2023/03/27 00:52:30;;;;;;;0.65;0.65;;;;;;;-3.57;86.22;99738.03;5044381;28;20021;-71
2023/03/27 00:55:04;;;;;;;0.50;0.50;;;;;;;-3.57;86.22;99745.63;5043319;28;20021;-72
2023/03/27 00:57:30;;;;;;;0.60;0.60;;;;;;;-3.67;86.24;99735.94;5044818;28;20053;-72
2023/03/27 00:59:57;;;;;;;0.60;0.60;;;;;;;-3.71;86.34;99731.56;5043209;28;20385;-72
2023/03/27 01:02:23;;;;;;;0.60;0.60;;;;;;;-3.70;86.14;99731.59;5044649;28;20052;-73
2023/03/27 01:04:49;;;;;;;0.60;0.60;;;;;;;-3.66;86.30;99740.22;5048272;28;20490;-72
2023/03/27 01:07:15;;;;;;;0.60;0.60;;;;;;;-3.65;86.48;99736.84;5048146;28;20381;-72
2023/03/27 01:09:41;;;;;;;0.50;0.50;;;;;;;-3.63;86.56;99740.34;5046758;28;20041;-74
2023/03/27 01:12:28;;;;;;;0.60;0.60;;;;;;;-3.60;86.70;99737.91;5046757;28;20021;-71
2023/03/27 01:14:56;;;;;;;0.50;0.50;;;;;;;-3.60;86.75;99742.97;5048261;28;20030;-73
2023/03/27 01:17:37;;;;;;;0.50;0.50;;;;;;;-3.59;86.73;99738.78;5046680;28;20045;-73
2023/03/27 01:20:29;;;;;;;0.60;0.60;;;;;;;-3.60;86.91;99742.97;5048192;28;20458;-71
2023/03/27 01:23:07;;;;;;;0.70;0.70;;;;;;;-3.64;86.93;99744.53;5046738;28;20436;-73
2023/03/27 01:26:09;;;;;;;0.60;0.60;;;;;;;-3.71;86.84;99734.97;5047999;28;20048;-72
2023/03/27 01:29:01;;;;;;;0.60;0.60;;;;;;;-3.76;86.65;99738.97;5048463;28;20076;-72
2023/03/27 01:31:48;;;;;;;0.50;0.50;;;;;;;-3.79;86.63;99741.41;5047919;28;20097;-72
2023/03/27 01:34:48;;;;;;;0.60;0.60;;;;;;;-3.82;86.83;99744.69;5047591;28;20088;-72
2023/03/27 01:37:23;;;;;;;0.60;0.60;;;;;;;-3.84;86.67;99740.34;5047503;28;20017;-73
2023/03/27 01:39:55;;;;;;;0.60;0.60;;;;;;;-3.89;86.68;99737.63;5046310;28;20021;-71
2023/03/27 01:42:24;;;;;;;0.80;0.80;;;;;;;-3.90;86.85;99741.00;5047466;28;20053;-71
2023/03/27 01:45:13;;;;;;;0.60;0.60;;;;;;;-3.93;86.61;99731.56;5046303;28;20036;-72
2023/03/27 01:47:51;;;;;;;0.50;0.50;;;;;;;-3.98;86.70;99723.78;5047425;28;20064;-71
2023/03/27 01:50:22;;;;;;;0.63;0.63;;;;;;;-3.90;86.76;99738.44;5047353;28;20025;-72
2023/03/27 01:53:14;;;;;;;0.60;0.60;;;;;;;-3.91;86.83;99744.31;5047360;28;20208;-72
2023/03/27 01:55:45;;;;;;;0.70;0.70;;;;;;;-3.95;86.57;99742.47;5047461;28;20041;-72
2023/03/27 01:58:15;;;;;;;0.60;0.60;;;;;;;-3.92;86.58;99745.13;5047261;28;20021;-71
2023/03/27 02:00:49;;;;;;;0.60;0.60;;;;;;;-3.99;86.60;99737.28;5046082;28;20029;-71
2023/03/27 02:03:22;;;;;;;0.60;0.60;;;;;;;-3.98;86.58;99740.69;5047212;28;20022;-71
2023/03/27 02:05:55;;;;;;;0.60;0.60;;;;;;;-4.00;86.66;99738.09;5046896;28;20036;-71
2023/03/27 02:08:31;;;;;;;0.60;0.60;;;;;;;-3.92;86.97;99742.59;5047085;28;20018;-73
2023/03/27 02:10:58;;;;;;;0.60;0.60;;;;;;;-3.94;86.93;99749.25;5045829;28;20021;-74
2023/03/27 02:13:47;;;;;;;0.60;0.60;;;;;;;-3.97;86.84;99739.88;5046636;28;20033;-72
2023/03/27 02:16:22;;;;;;;0.60;0.60;;;;;;;-3.98;86.84;99754.22;5046925;28;20075;-72
2023/03/27 02:18:57;;;;;;;0.50;0.50;;;;;;;-4.00;86.88;99748.22;5046904;28;20033;-72
2023/03/27 02:21:24;;;;;;;0.60;0.60;;;;;;;-4.05;86.90;99749.72;5045653;28;20021;-72
2023/03/27 02:23:49;;;;;;;0.60;0.60;;;;;;;-4.07;86.87;99750.47;5046823;28;20048;-73
2023/03/27 02:26:15;;;;;;;0.60;0.60;;;;;;;-4.15;86.93;99750.13;5045451;28;20022;-72
2023/03/27 02:29:02;;;;;;;0.60;0.60;;;;;;;-4.15;86.32;99755.19;5046882;28;20029;-72
2023/03/27 02:31:42;;;;;;;0.60;0.60;;;;;;;-4.14;86.47;99756.94;5047118;28;20026;-73
2023/03/27 02:34:10;;;;;;;0.60;0.60;;;;;;;-4.16;86.52;99761.97;5046505;28;20025;-72
2023/03/27 02:36:45;;;;;;;0.63;0.63;;;;;;;-4.17;86.58;99767.81;5045083;28;20025;-72
2023/03/27 02:39:21;;;;;;;0.60;0.60;;;;;;;-4.26;86.56;99754.75;5046578;28;20037;-72
2023/03/27 02:41:55;;;;;;;0.60;0.60;;;;;;;-4.23;86.42;99768.44;5046621;28;20025;-73
2023/03/27 02:44:55;;;;;;;0.60;0.60;;;;;;;-4.26;86.45;99768.31;5046451;28;20109;-74
2023/03/27 02:47:27;;;;;;;0.70;0.70;;;;;;;-4.29;86.45;99768.19;5046219;28;20025;-73
2023/03/27 02:50:12;;;;;;;0.60;0.60;;;;;;;-4.30;86.37;99770.66;5045135;28;20029;-73
2023/03/27 02:53:00;;;;;;;0.60;0.60;;;;;;;-4.36;86.33;99768.75;5045946;28;20026;-74
2023/03/27 02:55:32;;;;;;;0.68;0.68;;;;;;;-4.34;86.38;99768.81;5046318;28;20026;-72
2023/03/27 02:58:07;;;;;;;0.70;0.70;;;;;;;-4.41;86.49;99760.06;5046165;28;20029;-73
2023/03/27 03:00:39;;;;;;;0.60;0.60;;;;;;;-4.37;86.46;99774.59;5044839;28;20029;-73
2023/03/27 03:03:40;;;;;;;0.70;0.70;;;;;;;-4.35;86.31;99780.59;5044732;28;20045;-73
2023/03/27 03:06:06;;;;;;;0.70;0.70;;;;;;;-4.49;86.44;99747.94;5043435;28;20124;-72
2023/03/27 03:08:37;;;;;;;0.60;0.60;;;;;;;-4.41;86.29;99762.63;5043595;28;20033;-73
2023/03/27 03:11:09;;;;;;;0.88;0.88;;;;;;;-4.36;86.08;99777.19;5043733;28;20025;-73
2023/03/27 03:13:35;;;;;;;0.70;0.70;;;;;;;-4.35;86.31;99780.59;5043317;28;20033;-73
2023/03/27 03:16:01;;;;;;;0.63;0.63;;;;;;;-4.37;86.28;99777.13;5043453;28;20073;-73
2023/03/27 03:18:26;;;;;;;0.65;0.65;;;;;;;-4.35;86.30;99785.69;5043274;28;20057;-72
2023/03/27 03:20:55;;;;;;;0.70;0.70;;;;;;;-4.39;86.38;99786.31;5026625;28;20021;-72
2023/03/27 03:23:21;;;;;;;0.65;0.65;;;;;;;-4.37;86.26;99798.28;5043308;28;20038;-73
2023/03/27 03:25:51;;;;;;;0.60;0.60;;;;;;;-4.44;86.23;99790.34;5042644;28;20651;-73
2023/03/27 03:28:17;;;;;;;0.60;0.60;;;;;;;-4.40;86.22;99799.81;5026584;28;20037;-72
2023/03/27 03:30:45;;;;;;;0.60;0.60;;;;;;;-4.45;86.18;99792.00;5043409;28;20060;-73
2023/03/27 03:33:13;;;;;;;0.70;0.70;;;;;;;-4.43;86.09;99797.16;5042950;28;20124;-73
2023/03/27 03:35:38;;;;;;;0.60;0.60;;;;;;;-4.49;86.08;99791.00;5042836;28;20075;-71
2023/03/27 03:38:05;;;;;;;0.70;0.70;;;;;;;-4.50;86.09;99796.88;5043427;28;20018;-72
2023/03/27 03:40:31;;;;;;;0.60;0.60;;;;;;;-4.52;86.07;99790.88;5043110;28;20059;-72
2023/03/27 03:42:56;;;;;;;0.70;0.70;;;;;;;-4.48;86.08;99797.84;5045342;28;20108;-72
2023/03/27 03:45:21;;;;;;;0.60;0.60;;;;;;;-4.50;86.20;99799.44;5045388;28;20025;-72
2023/03/27 03:47:47;;;;;;;0.60;0.60;;;;;;;-4.49;86.22;99796.06;5045253;28;20085;-72
2023/03/27 03:50:13;;;;;;;0.60;0.60;;;;;;;-4.54;86.11;99801.75;5043993;28;20076;-71
2023/03/27 03:52:38;;;;;;;0.60;0.60;;;;;;;-4.51;85.86;99802.78;5044901;28;20079;-72
2023/03/27 03:55:05;;;;;;;0.60;0.60;;;;;;;-4.56;85.75;99800.81;5045398;28;20520;-72
2023/03/27 03:57:31;;;;;;;0.60;0.60;;;;;;;-4.64;85.35;99808.97;5045211;28;20026;-72
2023/03/27 03:59:57;;;;;;;0.60;0.60;;;;;;;-4.65;85.27;99813.97;5043842;28;20030;-72
2023/03/27 04:02:29;;;;;;;0.60;0.60;;;;;;;-4.68;85.38;99818.91;5044975;28;20025;-72
2023/03/27 04:04:56;;;;;;;0.50;0.50;;;;;;;-4.73;85.20;99819.53;5045037;28;20037;-71
2023/03/27 04:07:22;;;;;;;0.60;0.60;;;;;;;-4.75;85.26;99825.34;5043632;28;20033;-74
2023/03/27 04:09:52;;;;;;;0.60;0.60;;;;;;;-4.77;85.26;99824.41;5043915;28;20029;-73
2023/03/27 04:12:17;;;;;;;0.60;0.60;;;;;;;-4.86;85.24;99808.00;5045135;28;20036;-73
2023/03/27 04:14:43;;;;;;;0.70;0.70;;;;;;;-4.84;85.41;99818.22;5043630;28;20033;-75
2023/03/27 04:17:10;;;;;;;0.60;0.60;;;;;;;-4.80;85.17;99821.75;5043502;28;20053;-75
2023/03/27 04:19:35;;;;;;;0.60;0.60;;;;;;;-4.83;85.49;99825.03;5045004;28;20025;-73
2023/03/27 04:22:01;;;;;;;0.65;0.65;;;;;;;-4.84;85.51;99818.22;5043470;28;20512;-74
2023/03/27 04:24:29;;;;;;;0.70;0.70;;;;;;;-4.81;85.53;99825.09;5044784;28;20017;-74
2023/03/27 04:26:57;;;;;;;0.60;0.60;;;;;;;-4.89;85.56;99812.09;5043407;28;20026;-75
2023/03/27 04:29:23;;;;;;;0.60;0.60;;;;;;;-4.83;85.31;99827.56;5043671;28;20025;-70
2023/03/27 04:31:49;;;;;;;0.63;0.63;;;;;;;-4.82;85.43;99823.38;5044467;28;20029;-73
2023/03/27 04:34:19;;;;;;;0.55;0.55;;;;;;;-4.82;85.52;99821.69;5044379;28;20048;-75
2023/03/27 04:36:45;;;;;;;0.60;0.60;;;;;;;-4.77;85.63;99830.34;5043871;28;20041;-73
2023/03/27 04:39:10;;;;;;;0.70;0.70;;;;;;;-4.75;85.67;99831.31;5048350;28;20025;-73
2023/03/27 04:41:37;;;;;;;0.60;0.60;;;;;;;-4.73;85.69;99836.44;5048569;28;20026;-75
2023/03/27 04:44:04;;;;;;;0.70;0.70;;;;;;;-4.81;85.35;99820.91;5047231;28;20097;-74
2023/03/27 04:46:29;;;;;;;0.70;0.70;;;;;;;-4.75;85.56;99833.84;5048243;28;20433;-75
2023/03/27 04:48:55;;;;;;;0.65;0.65;;;;;;;-4.73;85.49;99829.69;5048430;28;20033;-74
2023/03/27 04:51:20;;;;;;;0.65;0.65;;;;;;;-4.74;85.63;99817.81;5048369;28;20030;-73
2023/03/27 04:53:46;;;;;;;0.70;0.70;;;;;;;-4.69;85.93;99823.09;5048416;28;20021;-74
2023/03/27 04:56:11;;;;;;;0.60;0.60;;;;;;;-4.69;85.78;99812.09;5047021;28;20091;-73
2023/03/27 04:58:39;;;;;;;0.60;0.60;;;;;;;-4.60;85.66;99825.19;5048364;28;20026;-74
2023/03/27 05:01:05;;;;;;;0.68;0.68;;;;;;;-4.62;86.04;99816.63;5047049;28;20136;-73
2023/03/27 05:03:31;;;;;;;0.70;0.70;;;;;;;-4.48;86.31;99827.38;5048262;28;20113;-73
2023/03/27 05:05:57;;;;;;;0.60;0.60;;;;;;;-4.24;86.88;99827.56;5047975;28;20057;-72
2023/03/27 05:08:22;;;;;;;0.70;0.70;;;;;;;-3.91;87.15;99826.34;5048109;28;20021;-72
2023/03/27 05:10:48;;;;;;;0.70;0.70;;;;;;;-3.54;87.95;99821.88;5048141;28;20035;-73
2023/03/27 05:13:13;;;;;;;0.60;0.60;;;;;;;-3.11;88.59;99817.59;5046646;28;20033;-73
2023/03/27 05:15:39;;;;;;;0.60;0.60;;;;;;;-2.58;89.89;99817.75;5046844;28;20029;-73
2023/03/27 05:18:05;;;;;;;0.60;0.60;;;;;;;-2.12;90.70;99814.28;5047707;28;20053;-72
2023/03/27 05:20:31;;;;;;;0.50;0.50;;;;;;;-1.61;90.69;99814.19;5046673;28;20026;-74
2023/03/27 05:22:57;;;;;;;0.50;0.50;;;;;;;-1.08;90.29;99820.88;5047859;28;20556;-70
2023/03/27 05:25:23;;;;;;;0.50;0.50;;;;;;;-0.48;90.06;99817.44;5047705;28;20022;-72
2023/03/27 05:27:51;;;;;;;0.50;0.50;;;;;;;0.05;89.08;99811.16;5047586;28;20029;-67
2023/03/27 05:30:19;;;;;;;0.47;0.47;;;;;;;0.59;87.26;99816.69;5047604;28;20097;-71
2023/03/27 05:32:47;;;;;;;0.50;0.50;;;;;;;1.13;85.97;99822.09;5046063;28;20056;-74
2023/03/27 05:35:16;;;;;;;0.50;0.50;;;;;;;1.62;82.23;99818.75;5046468;28;20021;-72
2023/03/27 05:37:51;;;;;;;0.40;0.40;;;;;;;2.05;78.91;99817.78;5047408;28;20086;-71
2023/03/27 05:40:21;;;;;;;0.50;0.50;;;;;;;2.68;79.07;99815.38;5047349;28;20105;-71
2023/03/27 05:42:47;;;;;;;0.47;0.47;;;;;;;3.01;79.53;99820.94;5047178;28;20032;-70
2023/03/27 05:45:14;;;;;;;0.40;0.40;;;;;;;3.37;75.71;99825.66;5047484;28;20549;-71
2023/03/27 05:47:47;;;;;;;0.45;0.45;;;;;;;3.90;75.68;99821.09;5047363;28;20025;-71
2023/03/27 05:50:14;;;;;;;0.40;0.40;;;;;;;4.12;74.33;99829.81;5046703;28;20033;-71
2023/03/27 05:52:40;;;;;;;0.40;0.40;;;;;;;4.13;72.13;99826.41;5046973;28;20028;-71
2023/03/27 05:55:07;;;;;;;0.40;0.40;;;;;;;4.40;73.25;99832.63;5047184;28;20385;-70
2023/03/27 05:57:36;;;;;;;0.40;0.40;;;;;;;4.77;73.09;99837.16;5046025;28;20519;-71
2023/03/27 06:00:10;;;;;;;0.40;0.40;;;;;;;5.17;70.07;99826.25;5047517;28;20031;-72
2023/03/27 06:02:37;;;;;;;0.40;0.40;;;;;;;5.52;72.89;99828.94;5047495;28;20025;-71
2023/03/27 06:05:05;;;;;;;0.40;0.40;;;;;;;6.00;72.88;99835.91;5045969;28;20030;-69
2023/03/27 06:07:30;;;;;;;0.40;0.40;;;;;;;6.54;70.18;99837.66;5045595;28;20077;-68
2023/03/27 06:09:56;;;;;;;0.40;0.40;;;;;;;7.07;71.00;99847.88;5045865;28;20025;-69
2023/03/27 06:12:22;;;;;;;0.47;0.47;;;;;;;7.57;76.18;99847.69;5047148;28;20021;-68
2023/03/27 06:14:48;;;;;;;0.47;0.47;;;;;;;7.55;74.38;99832.19;5047143;28;20212;-68
2023/03/27 06:17:13;;;;;;;0.40;0.40;;;;;;;7.78;74.74;99846.69;5046825;28;20085;-69
2023/03/27 06:19:39;;;;;;;0.40;0.40;;;;;;;7.99;72.59;99846.56;5046979;28;20097;-69
2023/03/27 06:22:06;;;;;;;0.50;0.50;;;;;;;8.15;72.47;99850.75;5046858;28;20022;-69
2023/03/27 06:24:31;;;;;;;1.30;1.30;;;;;;;8.41;68.81;99857.47;5046686;28;20032;-69
2023/03/27 06:26:57;;;;;;;0.50;0.50;;;;;;;8.24;70.11;99862.75;5046682;28;20018;-69
2023/03/27 06:29:23;;;;;;;0.40;0.40;;;;;;;8.44;70.93;99872.09;5046678;28;20051;-70
2023/03/27 06:31:49;;;;;;;0.40;0.40;;;;;;;9.47;80.50;99875.41;5046863;28;20304;-68
2023/03/27 06:34:15;;;;;;;0.40;0.40;;;;;;;9.76;82.49;99882.78;5046606;28;20025;-68
2023/03/27 06:36:40;;;;;;;0.30;0.30;;;;;;;9.80;70.81;99888.81;5046537;28;20115;-69
2023/03/27 06:39:06;;;;;;;0.40;0.40;;;;;;;9.88;73.04;99870.53;5046643;28;20021;-68
2023/03/27 06:41:31;;;;;;;0.30;0.30;;;;;;;10.24;73.80;99880.41;5046696;28;20022;-68
2023/03/27 06:43:56;;;;;;;0.32;0.32;;;;;;;10.51;71.25;99881.72;5046449;28;20048;-67
2023/03/27 06:46:22;;;;;;;6.22;2.25;;;;;;;11.07;74.25;99890.25;5046366;28;20501;-67
2023/03/27 06:48:49;;;;;;;0.30;0.30;;;;;;;11.31;73.91;99892.44;5044913;28;20026;-66
2023/03/27 06:51:15;;;;;;;0.30;0.30;;;;;;;11.37;70.02;99882.75;5046354;28;20032;-68
2023/03/27 06:53:41;;;;;;;0.30;0.30;;;;;;;11.70;70.61;99892.50;5046388;28;20022;-68
2023/03/27 06:56:07;;;;;;;0.40;0.40;;;;;;;11.89;64.50;99900.75;5045049;28;20175;-68
2023/03/27 06:58:32;;;;;;;0.40;0.40;;;;;;;12.17;62.97;99898.44;5044898;28;20021;-68
2023/03/27 07:00:58;;;;;;;0.82;0.82;;;;;;;12.42;67.65;99901.31;5045350;28;20098;-68
2023/03/27 07:03:24;;;;;;;0.30;0.30;;;;;;;12.74;65.98;99899.66;5044666;28;20025;-69
2023/03/27 07:05:50;;;;;;;0.30;0.30;;;;;;;12.96;70.60;99898.22;5045859;28;20025;-70
2023/03/27 07:08:17;;;;;;;0.30;0.30;;;;;;;12.72;66.22;99906.66;5044912;28;20028;-70
2023/03/27 07:10:43;;;;;;;0.40;0.40;;;;;;;13.13;74.23;99900.41;5046095;28;20021;-69
2023/03/27 07:13:09;;;;;;;0.30;0.30;;;;;;;13.27;77.74;99903.47;5045948;28;20091;-70
2023/03/27 07:15:35;;;;;;;0.30;0.30;;;;;;;13.18;77.71;99900.28;5044650;28;20428;-68
2023/03/27 07:18:05;;;;;;;0.30;0.30;;;;;;;12.97;78.23;99902.56;5044679;28;20041;-71
2023/03/27 07:20:32;;;;;;;0.30;0.30;;;;;;;12.90;79.81;99899.25;5044508;28;20544;-68
2023/03/27 07:22:59;;;;;;;0.30;0.30;;;;;;;13.08;80.90;99892.69;5045657;28;20025;-68
2023/03/27 07:25:35;;;;;;;1.30;0.88;;;;;;;13.01;80.72;99892.03;5045903;28;20018;-68
2023/03/27 07:28:04;;;;;;;0.22;0.22;;;;;;;12.80;78.27;99896.03;5045989;28;20474;-69
2023/03/27 07:30:29;;;;;;;0.40;0.40;;;;;;;12.48;78.81;99893.34;5045751;28;20036;-68
2023/03/27 07:32:56;;;;;;;0.30;0.30;;;;;;;12.44;80.25;99901.28;5045411;28;20026;-68
2023/03/27 07:35:22;;;;;;;0.40;0.40;;;;;;;12.59;80.81;99905.25;5045575;28;20055;-68
2023/03/27 07:37:47;;;;;;;0.30;0.30;;;;;;;13.08;81.02;99907.50;5045426;28;20090;-69
2023/03/27 07:40:12;;;;;;;0.40;0.40;;;;;;;13.07;78.77;99905.75;5045641;28;20029;-68
2023/03/27 07:42:44;;;;;;;0.30;0.30;;;;;;;12.71;77.72;99893.66;5045691;28;20025;-69
2023/03/27 07:45:11;;;;;;;0.40;0.40;;;;;;;12.77;74.30;99906.53;5045487;28;20037;-69
2023/03/27 07:47:38;;;;;;;0.30;0.30;;;;;;;12.77;75.21;99910.00;5045442;28;20052;-68
2023/03/27 07:50:04;;;;;;;0.35;0.35;;;;;;;12.89;75.50;99907.97;5045479;28;20056;-69
2023/03/27 07:52:33;;;;;;;0.30;0.30;;;;;;;12.93;76.00;99900.91;5045262;28;20025;-70
2023/03/27 07:54:58;;;;;;;0.30;0.30;;;;;;;13.02;77.33;99900.66;5045439;28;20090;-69
2023/03/27 07:57:24;;;;;;;0.52;0.52;;;;;;;12.93;76.21;99901.78;5045424;28;20413;-70
2023/03/27 07:59:51;;;;;;;0.40;0.40;;;;;;;12.71;76.39;99902.34;5045298;28;20021;-69
2023/03/27 08:02:16;;;;;;;0.35;0.35;;;;;;;12.39;77.16;99896.19;5043952;28;20033;-71
2023/03/27 08:04:42;;;;;;;0.30;0.30;;;;;;;12.26;76.61;99904.28;5044028;28;20086;-70
2023/03/27 08:07:08;;;;;;;0.30;0.30;;;;;;;12.35;77.19;99908.41;5043488;28;20032;-71
2023/03/27 08:09:34;;;;;;;0.35;0.35;;;;;;;12.45;79.07;99902.97;5043931;28;20028;-70
2023/03/27 08:11:59;;;;;;;0.40;0.40;;;;;;;12.28;79.25;99909.47;5047753;28;20049;-71
2023/03/27 08:14:25;;;;;;;0.32;0.32;;;;;;;11.96;66.58;99917.09;5051600;28;20079;-69
2023/03/27 08:16:51;;;;;;;0.40;0.40;;;;;;;11.93;71.93;99905.88;5051630;28;20072;-69
2023/03/27 08:19:17;;;;;;;0.30;0.30;;;;;;;11.76;68.72;99905.34;5051737;28;20093;-70
2023/03/27 08:21:43;;;;;;;0.40;0.40;;;;;;;12.26;71.63;99912.09;5050340;28;20505;-70
2023/03/27 08:24:08;;;;;;;0.40;0.40;;;;;;;12.36;73.12;99912.72;5051533;28;20029;-69
2023/03/27 08:26:35;;;;;;;0.40;0.40;;;;;;;11.96;68.87;99916.22;5051522;28;20113;-68
2023/03/27 08:29:00;;;;;;;0.40;0.40;;;;;;;11.31;69.73;99918.41;5050263;28;20028;-67
2023/03/27 08:31:29;;;;;;;1.52;1.52;;;;;;;10.93;68.49;99905.25;5051597;28;20084;-68
2023/03/27 08:33:54;;;;;;;1.00;1.00;;;;;;;10.89;70.38;99913.09;5050239;28;20018;-69
2023/03/27 08:36:20;;;;;;;0.40;0.40;;;;;;;11.07;73.45;99902.41;5051357;28;20018;-70
2023/03/27 08:38:46;;;;;;;0.30;0.30;;;;;;;11.05;74.45;99912.81;5051598;28;20053;-69
2023/03/27 08:41:32;;;;;;;0.40;0.40;;;;;;;11.25;71.85;99908.97;5051484;28;20021;-69
2023/03/27 08:44:00;;;;;;;0.40;0.40;;;;;;;11.56;71.41;99908.38;5051503;28;20052;-70
2023/03/27 08:46:31;;;;;;;0.30;0.30;;;;;;;11.68;73.13;99901.22;5050067;28;20025;-70
2023/03/27 08:49:14;;;;;;;0.40;0.40;;;;;;;11.53;62.30;99908.44;5050056;28;20025;-72
2023/03/27 08:52:00;;;;;;;0.40;0.40;;;;;;;11.63;65.25;99915.16;5051373;28;20029;-72
2023/03/27 08:54:37;;;;;;;0.40;0.40;;;;;;;12.20;65.89;99913.97;5049659;28;20045;-72
2023/03/27 08:57:15;;;;;;;0.82;0.73;;;;;;;12.74;66.93;99910.09;5051418;28;20014;-70
2023/03/27 08:59:41;;;;;;;0.30;0.30;;;;;;;12.45;65.84;99901.25;5050164;28;20052;-68
2023/03/27 09:02:17;;;;;;;0.30;0.30;;;;;;;11.87;64.28;99915.53;5051298;28;20021;-69
2023/03/27 09:04:42;;;;;;;0.50;0.50;;;;;;;11.54;65.06;99915.34;5051235;28;20025;-69
2023/03/27 09:07:49;;;;;;;0.40;0.40;;;;;;;11.51;65.38;99912.81;5049578;28;20033;-70
2023/03/27 09:10:33;;;;;;;0.40;0.40;;;;;;;11.55;66.91;99906.66;5050003;28;20033;-70
2023/03/27 09:13:10;;;;;;;0.30;0.30;;;;;;;11.77;64.49;99906.22;5051304;28;20021;-70
2023/03/27 09:15:51;;;;;;;0.35;0.35;;;;;;;11.89;62.86;99916.34;5051348;28;20021;-69
2023/03/27 09:18:26;;;;;;;1.63;1.52;;;;;;;12.07;58.07;99918.56;5049777;28;20060;-70
2023/03/27 09:20:56;;;;;;;0.30;0.30;;;;;;;11.83;53.63;99921.69;5051020;28;20049;-70
2023/03/27 09:23:41;;;;;;;1.23;0.65;;;;;;;12.58;51.48;99914.81;5049107;28;20036;-71
2023/03/27 09:26:11;;;;;;;0.40;0.40;;;;;;;13.12;54.88;99922.13;5047941;28;20081;-70
2023/03/27 09:28:52;;;;;;;0.30;0.30;;;;;;;13.17;50.83;99924.63;5048060;28;20026;-70
2023/03/27 09:31:27;;;;;;;0.40;0.40;;;;;;;12.83;51.59;99922.00;5048110;28;20052;-69
2023/03/27 09:33:54;;;;;;;0.30;0.30;;;;;;;12.84;49.95;99926.31;5047786;28;20025;-69
2023/03/27 09:36:21;;;;;;;0.35;0.35;;;;;;;12.24;47.24;99919.09;5046335;28;20025;-69
2023/03/27 09:38:52;;;;;;;0.38;0.38;;;;;;;12.13;52.18;99921.06;5047890;28;20195;-69
2023/03/27 09:41:22;;;;;;;0.40;0.40;;;;;;;12.55;56.33;99919.25;5046239;28;20111;-68
2023/03/27 09:43:51;;;;;;;0.40;0.40;;;;;;;13.25;57.86;99928.75;5046140;28;20045;-69
2023/03/27 09:46:19;;;;;;;0.35;0.35;;;;;;;13.37;52.66;99919.72;5046207;28;20021;-68
2023/03/27 09:48:53;;;;;;;0.40;0.40;;;;;;;13.65;54.48;99918.09;5047632;28;20032;-69
2023/03/27 09:51:37;;;;;;;0.82;0.82;;;;;;;13.79;55.47;99924.66;5047419;28;20053;-69
2023/03/27 09:54:03;;;;;;;0.30;0.30;;;;;;;13.67;54.74;99916.31;5047457;28;20025;-69
2023/03/27 09:56:29;;;;;;;0.30;0.30;;;;;;;13.88;59.62;99920.03;5047538;28;20036;-69
2023/03/27 09:58:56;;;;;;;2.33;2.15;;;;;;;14.57;58.50;99920.50;5047434;28;20033;-69
2023/03/27 10:01:33;;;;;;;0.30;0.30;;;;;;;15.11;50.81;99917.84;5047503;28;20021;-70
2023/03/27 10:03:59;;;;;;;0.45;0.45;;;;;;;14.55;46.88;99913.63;5047440;28;20025;-69
2023/03/27 10:06:42;;;;;;;0.30;0.30;;;;;;;14.04;50.12;99924.75;5047113;28;20068;-69
2023/03/27 10:09:23;;;;;;;0.70;0.70;;;;;;;13.64;51.04;99929.44;5047217;28;20047;-69
2023/03/27 10:11:50;;;;;;;0.40;0.40;;;;;;;13.73;50.36;99926.56;5047305;28;20029;-69
2023/03/27 10:14:18;;;;;;;0.20;0.20;;;;;;;14.37;51.38;99932.47;5045719;28;20061;-69
2023/03/27 10:16:46;;;;;;;3.63;2.47;;;;;;;14.67;49.83;99933.25;5046955;28;20398;-69
2023/03/27 10:19:26;;;;;;;0.30;0.30;;;;;;;15.04;51.46;99928.56;5047074;28;20032;-70
2023/03/27 10:22:00;;;;;;;0.30;0.30;;;;;;;15.34;54.99;99931.88;5046999;28;20032;-69
2023/03/27 10:24:32;;;;;;;0.30;0.30;;;;;;;15.66;52.10;99925.50;5047071;28;20037;-71
2023/03/27 10:26:59;;;;;;;0.20;0.20;;;;;;;15.24;44.80;99923.50;5046903;28;20029;-68
2023/03/27 10:29:29;;;;;;;0.30;0.30;;;;;;;14.50;48.80;99921.63;5046922;28;20078;-71
2023/03/27 10:31:57;;;;;;;0.30;0.30;;;;;;;15.14;56.48;99923.88;5045280;28;20021;-70
2023/03/27 10:34:33;;;;;;;0.20;0.20;;;;;;;15.67;54.16;99924.59;5046619;28;20025;-70
2023/03/27 10:37:00;;;;;;;0.20;0.20;;;;;;;16.19;57.84;99921.78;5046580;28;20026;-70
2023/03/27 10:39:31;;;;;;;0.20;0.20;;;;;;;16.51;51.40;99912.66;5046733;28;20032;-69
2023/03/27 10:42:00;;;;;;;0.30;0.30;;;;;;;16.96;54.69;99913.41;5046787;28;20060;-72
2023/03/27 10:44:27;;;;;;;0.20;0.20;;;;;;;17.01;48.98;99908.81;5045272;28;20394;-69
2023/03/27 10:46:52;;;;;;;0.30;0.30;;;;;;;16.93;46.87;99910.91;5046563;28;20025;-68
2023/03/27 10:49:42;;;;;;;0.20;0.20;;;;;;;16.73;46.39;99910.00;5046438;28;20116;-69
2023/03/27 10:52:20;;;;;;;0.20;0.20;;;;;;;16.93;44.58;99919.63;5046194;28;20032;-69
2023/03/27 10:54:57;;;;;;;0.30;0.30;;;;;;;17.12;52.43;99916.25;5046376;28;20025;-68
2023/03/27 10:57:29;;;;;;;0.22;0.22;;;;;;;17.21;54.38;99909.75;5046338;28;20045;-69
2023/03/27 11:00:10;;;;;;;0.40;0.40;;;;;;;17.27;48.89;99916.50;5046264;28;20021;-69
2023/03/27 11:02:41;;;;;;;0.30;0.30;;;;;;;17.61;55.00;99911.47;5046426;28;20026;-68
2023/03/27 11:05:14;;;;;;;0.30;0.30;;;;;;;17.65;49.00;99915.69;5046204;28;20030;-69
2023/03/27 11:07:43;;;;;;;0.30;0.30;;;;;;;17.38;51.28;99929.13;5045733;28;20033;-69
2023/03/27 11:10:42;;;;;;;0.20;0.20;;;;;;;17.24;43.09;99920.09;5046133;28;20021;-69
2023/03/27 11:13:17;;;;;;;0.30;0.30;;;;;;;17.23;43.95;99918.41;5045801;28;20029;-69
2023/03/27 11:15:52;;;;;;;0.50;0.50;;;;;;;17.73;45.01;99925.81;5044739;28;20025;-69
2023/03/27 11:18:27;;;;;;;0.30;0.30;;;;;;;18.35;45.85;99924.72;5045756;28;20041;-68
2023/03/27 11:21:02;;;;;;;0.30;0.30;;;;;;;17.97;47.55;99934.34;5046091;28;20035;-69
2023/03/27 11:23:43;;;;;;;0.30;0.30;;;;;;;17.76;48.49;99928.31;5045747;28;20022;-68
2023/03/27 11:26:11;;;;;;;0.40;0.40;;;;;;;16.66;49.07;99924.28;5045713;28;20029;-69
2023/03/27 11:29:03;;;;;;;0.30;0.30;;;;;;;15.55;53.23;99929.38;5045735;28;20374;-69
2023/03/27 11:31:37;;;;;;;0.52;0.52;;;;;;;14.07;51.69;99929.91;5045379;28;20455;-68
2023/03/27 11:34:29;;;;;;;0.30;0.30;;;;;;;12.69;57.79;99937.13;5044191;28;20033;-68
2023/03/27 11:37:04;;;;;;;0.30;0.30;;;;;;;11.25;59.14;99938.44;5045445;28;20024;-68
2023/03/27 11:39:55;;;;;;;0.40;0.40;;;;;;;9.87;49.11;99944.88;5045464;28;20029;-68
2023/03/27 11:42:31;;;;;;;0.40;0.40;;;;;;;9.47;62.22;99943.63;5045418;28;20022;-68
2023/03/27 11:44:57;;;;;;;0.40;0.40;;;;;;;8.87;59.80;99943.34;5045474;28;20021;-69
2023/03/27 11:47:47;;;;;;;0.50;0.50;;;;;;;8.41;54.62;99949.72;5045026;28;20040;-68
2023/03/27 11:50:27;;;;;;;0.47;0.47;;;;;;;7.86;57.98;99946.59;5045385;28;20048;-68